createdAt,value
2023-02-23T00:00:28.127Z,30.55
2023-02-23T00:03:00.945Z,27.77
2023-02-23T00:05:28.971Z,28.65
2023-02-23T00:07:55.473Z,29.67
2023-02-23T00:10:24.625Z,29.80
2023-02-23T00:12:51.715Z,28.45
2023-02-23T00:15:18.060Z,28.88
2023-02-23T00:17:44.308Z,31.55
2023-02-23T00:20:11.892Z,30.75
2023-02-23T00:22:39.909Z,31.23
2023-02-23T00:25:08.951Z,30.98
2023-02-23T00:27:36.382Z,31.55
2023-02-23T00:30:03.184Z,33.17
2023-02-23T00:32:29.487Z,31.65
2023-02-23T00:34:58.118Z,32.70
2023-02-23T00:37:24.374Z,31.50
2023-02-23T00:39:51.837Z,30.42
2023-02-23T00:42:18.048Z,32.55
2023-02-23T00:44:44.304Z,31.98
2023-02-23T00:47:10.491Z,33.35
2023-02-23T00:49:36.697Z,33.08
2023-02-23T00:52:04.417Z,33.00
2023-02-23T00:54:30.640Z,33.40
2023-02-23T00:56:56.840Z,32.85
2023-02-23T00:59:23.253Z,35.47
2023-02-23T01:01:49.878Z,32.75
2023-02-23T01:04:16.638Z,33.38
2023-02-23T01:06:43.077Z,32.85
2023-02-23T01:09:10.722Z,34.00
2023-02-23T01:11:36.942Z,34.50
2023-02-23T01:14:03.202Z,32.15
2023-02-23T01:16:30.518Z,35.00
2023-02-23T01:19:00.681Z,34.92
2023-02-23T01:21:28.353Z,36.47
2023-02-23T01:23:54.988Z,33.00
2023-02-23T01:26:28.543Z,35.55
2023-02-23T01:28:56.704Z,36.17
2023-02-23T01:31:23.944Z,35.13
2023-02-23T01:33:54.443Z,34.13
2023-02-23T01:36:20.724Z,35.72
2023-02-23T01:38:47.010Z,36.45
2023-02-23T01:41:13.220Z,37.13
2023-02-23T01:44:08.733Z,37.35
2023-02-23T01:46:35.836Z,35.25
2023-02-23T01:49:03.797Z,35.63
2023-02-23T01:51:36.860Z,34.22
2023-02-23T01:54:14.241Z,37.60
2023-02-23T01:56:43.340Z,34.30
2023-02-23T01:59:12.151Z,36.60
2023-02-23T02:01:40.995Z,35.22
2023-02-23T02:04:07.933Z,30.80
2023-02-23T02:06:35.902Z,35.90
2023-02-23T02:09:08.081Z,33.80
2023-02-23T02:11:38.822Z,35.05
2023-02-23T02:14:12.761Z,36.95
2023-02-23T02:16:53.583Z,35.13
2023-02-23T02:19:38.756Z,38.57
2023-02-23T02:22:16.677Z,37.83
2023-02-23T02:24:43.057Z,39.40
2023-02-23T02:27:26.446Z,39.17
2023-02-23T02:30:13.780Z,39.17
2023-02-23T02:32:58.635Z,37.90
2023-02-23T02:35:37.968Z,38.95
2023-02-23T02:38:04.175Z,39.17
2023-02-23T02:40:36.228Z,38.28
2023-02-23T02:43:11.200Z,39.83
2023-02-23T02:45:42.144Z,39.28
2023-02-23T02:48:25.738Z,41.00
2023-02-23T02:50:57.994Z,37.70
2023-02-23T02:53:34.095Z,38.47
2023-02-23T02:56:01.543Z,40.35
2023-02-23T02:58:38.799Z,41.20
2023-02-23T03:01:25.644Z,42.20
2023-02-23T03:04:10.929Z,37.47
2023-02-23T03:07:09.624Z,35.85
2023-02-23T03:10:02.580Z,39.90
2023-02-23T03:12:53.592Z,37.13
2023-02-23T03:15:47.758Z,40.35
2023-02-23T03:18:32.785Z,38.85
2023-02-23T03:21:22.513Z,38.58
2023-02-23T03:24:15.177Z,40.65
2023-02-23T03:27:04.168Z,39.63
2023-02-23T03:29:55.073Z,36.25
2023-02-23T03:32:52.007Z,42.47
2023-02-23T03:35:40.494Z,38.08
2023-02-23T03:38:30.076Z,39.63
2023-02-23T03:41:15.023Z,38.78
2023-02-23T03:44:12.268Z,38.90
2023-02-23T03:46:57.926Z,36.40
2023-02-23T03:49:46.364Z,35.97
2023-02-23T03:52:43.412Z,35.88
2023-02-23T03:55:30.559Z,39.55
2023-02-23T03:58:19.290Z,40.05
2023-02-23T04:01:06.805Z,38.30
2023-02-23T04:03:54.237Z,40.58
2023-02-23T04:06:41.834Z,41.03
2023-02-23T04:09:26.650Z,38.35
2023-02-23T04:12:14.773Z,38.28
2023-02-23T04:14:47.729Z,39.78
2023-02-23T04:17:15.101Z,38.78
2023-02-23T04:19:54.514Z,39.58
2023-02-23T04:22:21.196Z,40.88
2023-02-23T04:24:47.394Z,40.38
2023-02-23T04:27:14.211Z,40.58
2023-02-23T04:29:40.862Z,41.72
2023-02-23T04:32:07.554Z,41.53
2023-02-23T04:34:33.920Z,42.67
2023-02-23T04:37:00.114Z,41.72
2023-02-23T04:39:26.829Z,41.90
2023-02-23T04:41:53.079Z,42.08
2023-02-23T04:44:19.484Z,39.05
2023-02-23T04:46:46.271Z,41.72
2023-02-23T04:49:12.561Z,40.17
2023-02-23T04:51:38.886Z,41.97
2023-02-23T04:54:05.474Z,39.55
2023-02-23T04:56:31.869Z,42.28
2023-02-23T04:58:58.090Z,43.13
2023-02-23T05:01:24.306Z,36.65
2023-02-23T05:03:50.831Z,39.22
2023-02-23T05:06:17.207Z,39.13
2023-02-23T05:08:43.493Z,41.00
2023-02-23T05:11:10.141Z,42.20
2023-02-23T05:13:36.330Z,42.20
2023-02-23T05:16:02.554Z,43.30
2023-02-23T05:18:28.861Z,41.60
2023-02-23T05:21:01.350Z,42.05
2023-02-23T05:23:27.533Z,42.50
2023-02-23T05:25:53.774Z,43.63
2023-02-23T05:28:19.979Z,42.63
2023-02-23T05:30:46.234Z,41.15
2023-02-23T05:33:14.448Z,41.10
2023-02-23T05:35:41.578Z,39.60
2023-02-23T05:38:07.773Z,37.35
2023-02-23T05:40:34.228Z,38.95
2023-02-23T05:43:00.838Z,39.55
2023-02-23T05:45:27.088Z,39.03
2023-02-23T05:47:53.281Z,40.33
2023-02-23T05:50:19.566Z,42.17
2023-02-23T05:52:45.767Z,40.90
2023-02-23T05:55:12.447Z,41.60
2023-02-23T05:57:39.013Z,41.47
2023-02-23T06:00:06.116Z,42.17
2023-02-23T06:02:32.582Z,41.65
2023-02-23T06:04:58.854Z,43.13
2023-02-23T06:07:25.054Z,40.20
2023-02-23T06:09:51.271Z,40.40
2023-02-23T06:12:17.666Z,39.47
2023-02-23T06:14:43.913Z,42.20
2023-02-23T06:17:10.258Z,41.78
2023-02-23T06:19:36.468Z,42.42
2023-02-23T06:22:02.905Z,39.40
2023-02-23T06:24:29.160Z,42.40
2023-02-23T06:26:55.867Z,41.25
2023-02-23T06:29:22.585Z,41.50
2023-02-23T06:31:48.854Z,39.63
2023-02-23T06:34:15.084Z,38.63
2023-02-23T06:36:41.307Z,39.08
2023-02-23T06:39:07.681Z,38.60
2023-02-23T06:41:33.873Z,38.95
2023-02-23T06:44:00.124Z,41.65
2023-02-23T06:46:26.373Z,38.20
2023-02-23T06:48:59.652Z,38.88
2023-02-23T06:51:25.930Z,39.13
2023-02-23T06:53:55.156Z,40.50
2023-02-23T06:56:21.485Z,41.13
2023-02-23T06:58:48.639Z,40.42
2023-02-23T07:01:15.726Z,40.45
2023-02-23T07:03:42.408Z,40.28
2023-02-23T07:06:08.931Z,38.45
2023-02-23T07:08:35.229Z,39.45
2023-02-23T07:11:13.149Z,40.78
2023-02-23T07:13:39.910Z,40.22
2023-02-23T07:16:07.050Z,39.30
2023-02-23T07:18:33.298Z,39.70
2023-02-23T07:20:59.521Z,40.88
2023-02-23T07:23:25.777Z,39.53
2023-02-23T07:25:52.993Z,40.15
2023-02-23T07:28:19.358Z,39.53
2023-02-23T07:30:45.597Z,38.85
2023-02-23T07:33:11.841Z,36.53
2023-02-23T07:35:38.058Z,37.30
2023-02-23T07:38:05.496Z,36.55
2023-02-23T07:40:31.711Z,37.97
2023-02-23T07:42:57.979Z,39.58
2023-02-23T07:45:25.030Z,38.95
2023-02-23T07:47:51.271Z,39.65
2023-02-23T07:50:17.493Z,37.85
2023-02-23T07:52:43.895Z,38.25
2023-02-23T07:55:11.066Z,36.28
2023-02-23T07:57:38.039Z,37.72
2023-02-23T08:00:05.548Z,35.88
2023-02-23T08:02:32.658Z,36.05
2023-02-23T08:04:58.904Z,36.10
2023-02-23T08:07:25.789Z,36.58
2023-02-23T08:09:52.447Z,34.30
2023-02-23T08:12:19.071Z,34.92
2023-02-23T08:14:45.319Z,35.10
2023-02-23T08:17:11.565Z,35.47
2023-02-23T08:19:37.871Z,35.50
2023-02-23T08:22:04.774Z,32.42
2023-02-23T08:24:31.154Z,34.65
2023-02-23T08:26:57.776Z,34.40
2023-02-23T08:29:24.050Z,33.75
2023-02-23T08:31:53.386Z,35.50
2023-02-23T08:34:20.486Z,32.95
2023-02-23T08:36:46.688Z,35.42
2023-02-23T08:39:13.418Z,33.22
2023-02-23T08:41:39.862Z,35.22
2023-02-23T08:44:06.267Z,34.13
2023-02-23T08:46:32.878Z,34.95
2023-02-23T08:48:59.178Z,33.95
2023-02-23T08:51:25.424Z,36.72
2023-02-23T08:53:51.800Z,34.55
2023-02-23T08:56:18.045Z,36.17
2023-02-23T08:58:44.312Z,35.97
2023-02-23T09:01:18.481Z,34.67
2023-02-23T09:03:45.245Z,35.20
2023-02-23T09:06:15.217Z,36.70
2023-02-23T09:08:41.930Z,37.42
2023-02-23T09:11:08.221Z,40.45
2023-02-23T09:13:34.425Z,37.92
2023-02-23T09:16:00.715Z,38.13
2023-02-23T09:18:29.417Z,37.35
2023-02-23T09:20:55.655Z,38.33
2023-02-23T09:23:21.978Z,36.35
2023-02-23T09:25:48.197Z,37.08
2023-02-23T09:28:15.307Z,36.85
2023-02-23T09:30:42.276Z,36.83
2023-02-23T09:33:09.256Z,37.28
2023-02-23T09:35:36.273Z,36.55
2023-02-23T09:38:06.281Z,37.58
2023-02-23T09:40:42.790Z,35.65
2023-02-23T09:43:13.766Z,36.78
2023-02-23T09:45:47.638Z,38.35
2023-02-23T09:48:16.508Z,38.17
2023-02-23T09:50:44.870Z,39.53
2023-02-23T09:53:30.558Z,38.72
2023-02-23T09:55:58.508Z,39.58
2023-02-23T09:58:29.717Z,39.00
2023-02-23T10:00:58.930Z,37.80
2023-02-23T10:03:33.618Z,38.70
2023-02-23T10:06:02.420Z,37.13
2023-02-23T10:08:32.394Z,36.20
2023-02-23T10:11:14.326Z,35.10
2023-02-23T10:13:45.040Z,34.83
2023-02-23T10:16:15.838Z,34.95
2023-02-23T10:18:47.391Z,33.08
2023-02-23T10:21:19.820Z,30.52
2023-02-23T10:24:00.804Z,32.40
2023-02-23T10:26:31.873Z,30.20
2023-02-23T10:28:58.546Z,30.73
2023-02-23T10:31:37.859Z,30.38
2023-02-23T10:34:06.090Z,28.83
2023-02-23T10:36:35.877Z,28.30
2023-02-23T10:39:04.316Z,29.02
2023-02-23T10:41:31.557Z,28.60
2023-02-23T10:44:05.111Z,27.65
2023-02-23T10:46:39.645Z,28.13
2023-02-23T10:49:14.011Z,27.88
2023-02-23T10:51:41.187Z,25.95
2023-02-23T10:54:26.415Z,28.17
2023-02-23T10:56:53.065Z,28.63
2023-02-23T10:59:20.461Z,29.50
2023-02-23T11:02:00.957Z,31.02
2023-02-23T11:04:29.586Z,31.48
2023-02-23T11:07:06.870Z,31.23
2023-02-23T11:09:45.807Z,32.65
2023-02-23T11:12:25.529Z,35.50
2023-02-23T11:15:11.811Z,35.20
2023-02-23T11:17:38.200Z,37.15
2023-02-23T11:20:24.732Z,35.75
2023-02-23T11:22:52.155Z,36.17
2023-02-23T11:25:24.864Z,35.30
2023-02-23T11:27:52.986Z,36.58
2023-02-23T11:30:42.726Z,37.10
2023-02-23T11:33:15.242Z,36.80
2023-02-23T11:35:41.453Z,35.08
2023-02-23T11:38:23.060Z,36.92
2023-02-23T11:43:16.428Z,37.10
2023-02-23T11:45:47.741Z,34.53
2023-02-23T11:48:22.282Z,39.55
2023-02-23T11:50:49.492Z,34.70
2023-02-23T11:53:16.720Z,36.33
2023-02-23T11:55:47.215Z,37.85
2023-02-23T11:58:29.412Z,35.53
2023-02-23T12:00:59.477Z,34.40
2023-02-23T12:03:26.750Z,34.35
2023-02-23T12:05:54.456Z,33.13
2023-02-23T12:08:27.454Z,33.20
2023-02-23T12:10:58.839Z,32.28
2023-02-23T12:13:31.194Z,31.30
2023-02-23T12:16:03.196Z,32.03
2023-02-23T12:18:48.798Z,29.77
2023-02-23T12:21:14.977Z,32.05
2023-02-23T12:23:43.865Z,32.20
2023-02-23T12:26:17.828Z,31.15
2023-02-23T12:28:44.307Z,31.98
2023-02-23T12:31:23.616Z,30.55
2023-02-23T12:33:53.139Z,32.58
2023-02-23T12:36:26.126Z,32.35
2023-02-23T12:38:56.391Z,33.08
2023-02-23T12:41:28.894Z,33.42
2023-02-23T12:44:04.458Z,32.20
2023-02-23T12:46:34.106Z,32.20
2023-02-23T12:49:00.280Z,31.90
2023-02-23T12:51:38.941Z,32.53
2023-02-23T12:54:05.789Z,31.90
2023-02-23T12:56:35.477Z,31.55
2023-02-23T12:59:06.617Z,30.13
2023-02-23T13:01:42.613Z,30.73
2023-02-23T13:04:08.855Z,30.33
2023-02-23T13:06:54.082Z,30.55
2023-02-23T13:09:23.354Z,29.10
2023-02-23T13:12:07.348Z,27.95
2023-02-23T13:14:33.514Z,27.42
2023-02-23T13:17:03.527Z,29.02
2023-02-23T13:19:34.550Z,27.77
2023-02-23T13:22:19.469Z,29.38
2023-02-23T13:24:47.508Z,27.75
2023-02-23T13:27:19.487Z,29.08
2023-02-23T13:29:47.904Z,28.27
2023-02-23T13:32:19.230Z,29.67
2023-02-23T13:34:49.901Z,29.23
2023-02-23T13:37:17.735Z,29.43
2023-02-23T13:39:47.684Z,28.48
2023-02-23T13:42:27.917Z,27.63
2023-02-23T13:44:59.914Z,26.85
2023-02-23T13:47:42.517Z,25.60
2023-02-23T13:50:14.925Z,25.58
2023-02-23T13:52:43.126Z,24.42
2023-02-23T13:55:47.106Z,23.90
2023-02-23T13:58:16.142Z,22.00
2023-02-23T14:00:42.740Z,24.10
2023-02-23T14:03:20.347Z,21.67
2023-02-23T14:05:47.010Z,21.73
2023-02-23T14:08:27.822Z,23.42
2023-02-23T14:10:55.793Z,22.17
2023-02-23T14:13:26.880Z,21.15
2023-02-23T14:16:08.421Z,21.15
2023-02-23T14:18:35.297Z,20.70
2023-02-23T14:21:04.942Z,21.63
2023-02-23T14:23:35.825Z,20.38
2023-02-23T14:26:13.074Z,20.55
2023-02-23T14:28:40.194Z,20.15
2023-02-23T14:31:12.659Z,19.70
2023-02-23T14:33:41.803Z,20.23
2023-02-23T14:36:29.100Z,18.95
2023-02-23T14:39:01.305Z,18.52
2023-02-23T14:41:27.515Z,18.08
2023-02-23T14:44:27.165Z,19.10
2023-02-23T14:46:55.565Z,17.73
2023-02-23T14:49:22.622Z,16.98
2023-02-23T14:51:51.614Z,17.83
2023-02-23T14:54:31.338Z,17.75
2023-02-23T14:56:58.727Z,17.65
2023-02-23T14:59:29.648Z,17.85
2023-02-23T15:01:59.162Z,15.85
2023-02-23T15:04:27.317Z,17.27
2023-02-23T15:06:56.215Z,17.95
2023-02-23T15:09:28.912Z,18.95
2023-02-23T15:11:56.942Z,18.75
2023-02-23T15:14:28.444Z,19.45
2023-02-23T15:16:55.929Z,17.02
2023-02-23T15:19:33.445Z,17.25
2023-02-23T15:22:01.666Z,18.45
2023-02-23T15:24:31.234Z,16.80
2023-02-23T15:26:57.654Z,16.13
2023-02-23T15:29:33.466Z,19.45
2023-02-23T15:32:12.716Z,19.05
2023-02-23T15:34:39.062Z,19.15
2023-02-23T15:37:07.499Z,19.55
2023-02-23T15:39:37.272Z,19.50
2023-02-23T15:42:04.944Z,21.27
2023-02-23T15:44:44.037Z,19.55
2023-02-23T15:47:16.917Z,19.55
2023-02-23T15:49:43.244Z,20.73
2023-02-23T15:52:14.786Z,19.17
2023-02-23T15:57:14.074Z,18.63
2023-02-23T15:59:40.310Z,19.45
2023-02-23T16:02:14.595Z,20.02
2023-02-23T16:04:48.609Z,21.05
2023-02-23T16:07:17.074Z,19.15
2023-02-23T16:10:09.621Z,19.58
2023-02-23T16:12:38.009Z,19.80
2023-02-23T16:15:06.367Z,20.30
2023-02-23T16:17:46.985Z,19.92
2023-02-23T16:20:21.335Z,19.63
2023-02-23T16:22:47.774Z,19.98
2023-02-23T16:25:15.197Z,20.02
2023-02-23T16:27:42.344Z,19.83
2023-02-23T16:30:18.564Z,21.13
2023-02-23T16:32:45.767Z,22.33
2023-02-23T16:35:16.940Z,20.38
2023-02-23T16:37:56.992Z,21.75
2023-02-23T16:40:23.666Z,21.15
2023-02-23T16:42:49.902Z,19.90
2023-02-23T16:45:17.146Z,21.83
2023-02-23T16:47:47.566Z,22.10
2023-02-23T16:50:20.171Z,21.35
2023-02-23T16:52:51.555Z,22.23
2023-02-23T16:55:18.449Z,22.80
2023-02-23T16:57:46.068Z,19.67
2023-02-23T17:00:18.341Z,18.50
2023-02-23T17:02:45.022Z,20.95
2023-02-23T17:05:15.662Z,18.85
2023-02-23T17:07:41.862Z,19.53
2023-02-23T17:10:08.636Z,18.33
2023-02-23T17:12:34.851Z,18.63
2023-02-23T17:15:02.292Z,18.77
2023-02-23T17:17:28.508Z,18.88
2023-02-23T17:19:54.717Z,18.92
2023-02-23T17:22:20.907Z,16.55
2023-02-23T17:24:47.123Z,18.45
2023-02-23T17:27:13.313Z,17.85
2023-02-23T17:29:39.608Z,15.95
2023-02-23T17:32:06.062Z,17.08
2023-02-23T17:34:32.399Z,15.85
2023-02-23T17:36:58.782Z,16.30
2023-02-23T17:39:27.979Z,16.08
2023-02-23T17:41:54.552Z,16.20
2023-02-23T17:44:20.770Z,14.38
2023-02-23T17:46:46.973Z,14.90
2023-02-23T17:49:13.195Z,16.52
2023-02-23T17:51:39.415Z,14.88
2023-02-23T17:54:06.185Z,15.05
2023-02-23T17:56:32.605Z,15.63
2023-02-23T17:58:59.482Z,15.35
2023-02-23T18:01:25.780Z,16.98
2023-02-23T18:03:52.032Z,16.35
2023-02-23T18:06:19.591Z,15.65
2023-02-23T18:08:45.817Z,17.08
2023-02-23T18:11:12.179Z,16.77
2023-02-23T18:13:38.384Z,18.00
2023-02-23T18:16:09.304Z,17.95
2023-02-23T18:18:37.308Z,17.92
2023-02-23T18:21:03.664Z,19.30
2023-02-23T18:23:32.576Z,18.45
2023-02-23T18:26:09.523Z,17.65
2023-02-23T18:28:36.029Z,16.95
2023-02-23T18:31:02.302Z,18.60
2023-02-23T18:33:28.526Z,18.63
2023-02-23T18:35:54.755Z,20.02
2023-02-23T18:38:21.074Z,18.70
2023-02-23T18:40:47.335Z,19.02
2023-02-23T18:43:15.151Z,18.75
2023-02-23T18:45:41.391Z,18.98
2023-02-23T18:48:10.718Z,20.58
2023-02-23T18:50:36.925Z,19.40
2023-02-23T18:53:05.187Z,20.25
2023-02-23T18:55:31.743Z,20.45
2023-02-23T18:57:58.016Z,20.38
2023-02-23T19:00:24.256Z,20.75
2023-02-23T19:02:50.513Z,20.20
2023-02-23T19:05:18.199Z,20.98
2023-02-23T19:07:45.878Z,18.83
2023-02-23T19:10:14.698Z,19.88
2023-02-23T19:12:41.070Z,19.83
2023-02-23T19:15:07.986Z,19.45
2023-02-23T19:17:35.135Z,19.75
2023-02-23T19:20:01.682Z,19.73
2023-02-23T19:22:28.888Z,19.90
2023-02-23T19:24:55.328Z,19.13
2023-02-23T19:27:21.705Z,18.35
2023-02-23T19:29:48.004Z,19.45
2023-02-23T19:32:17.970Z,20.13
2023-02-23T19:34:46.309Z,18.65
2023-02-23T19:37:12.925Z,18.50
2023-02-23T19:39:39.532Z,19.08
2023-02-23T19:42:05.895Z,19.50
2023-02-23T19:44:32.280Z,19.70
2023-02-23T19:46:58.576Z,17.90
2023-02-23T19:49:25.515Z,19.27
2023-02-23T19:51:52.856Z,18.17
2023-02-23T19:54:19.446Z,17.50
2023-02-23T19:56:45.796Z,18.15
2023-02-23T19:59:12.577Z,17.85
2023-02-23T20:01:39.110Z,17.48
2023-02-23T20:04:07.015Z,15.43
2023-02-23T20:06:37.572Z,16.55
2023-02-23T20:09:05.362Z,15.57
2023-02-23T20:11:32.574Z,17.58
2023-02-23T20:14:00.227Z,17.17
2023-02-23T20:16:29.441Z,17.52
2023-02-23T20:18:56.811Z,16.63
2023-02-23T20:21:24.339Z,15.05
2023-02-23T20:23:50.947Z,16.35
2023-02-23T20:26:19.306Z,16.88
2023-02-23T20:28:45.561Z,14.90
2023-02-23T20:31:17.210Z,16.13
2023-02-23T20:33:43.849Z,14.10
2023-02-23T20:36:12.021Z,13.75
2023-02-23T20:38:38.690Z,14.50
2023-02-23T20:41:05.029Z,14.05
2023-02-23T20:43:31.564Z,14.43
2023-02-23T20:46:00.659Z,14.60
2023-02-23T20:48:30.497Z,13.52
2023-02-23T20:50:56.977Z,12.93
2023-02-23T20:53:24.417Z,13.60
2023-02-23T20:55:50.952Z,13.90
2023-02-23T20:58:25.397Z,13.68
2023-02-23T21:00:56.904Z,13.52
2023-02-23T21:05:50.816Z,12.93
2023-02-23T21:08:17.267Z,13.82
2023-02-23T21:10:43.602Z,14.77
2023-02-23T21:13:13.024Z,15.30
2023-02-23T21:15:39.888Z,15.48
2023-02-23T21:18:06.549Z,15.77
2023-02-23T21:20:33.444Z,15.50
2023-02-23T21:23:00.252Z,15.88
2023-02-23T21:25:27.156Z,14.98
2023-02-23T21:27:54.295Z,15.55
2023-02-23T21:30:21.558Z,16.30
2023-02-23T21:32:48.718Z,16.02
2023-02-23T21:35:15.546Z,16.17
2023-02-23T21:37:41.932Z,14.77
2023-02-23T21:40:10.288Z,15.15
2023-02-23T21:42:37.444Z,15.02
2023-02-23T21:45:03.772Z,14.25
2023-02-23T21:47:29.977Z,13.00
2023-02-23T21:49:56.382Z,14.68
2023-02-23T21:52:22.614Z,13.40
2023-02-23T21:54:51.836Z,13.18
2023-02-23T21:57:22.440Z,13.05
2023-02-23T21:59:49.432Z,14.07
2023-02-23T22:02:15.776Z,12.90
2023-02-23T22:04:41.980Z,13.45
2023-02-23T22:07:08.723Z,12.80
2023-02-23T22:09:35.047Z,12.73
2023-02-23T22:12:01.415Z,12.23
2023-02-23T22:14:27.654Z,12.35
2023-02-23T22:16:53.924Z,12.23
2023-02-23T22:19:20.206Z,13.13
2023-02-23T22:21:48.350Z,13.93
2023-02-23T22:24:15.618Z,14.88
2023-02-23T22:26:46.643Z,13.07
2023-02-23T22:29:12.882Z,13.98
2023-02-23T22:31:39.458Z,13.50
2023-02-23T22:34:07.097Z,14.07
2023-02-23T22:36:34.286Z,12.18
2023-02-23T22:39:00.608Z,12.27
2023-02-23T22:41:29.841Z,13.80
2023-02-23T22:43:56.911Z,12.27
2023-02-23T22:46:23.789Z,12.93
2023-02-23T22:48:50.310Z,13.98
2023-02-23T22:51:17.537Z,13.25
2023-02-23T22:53:44.546Z,12.93
2023-02-23T22:56:10.964Z,12.90
2023-02-23T22:58:37.201Z,13.05
2023-02-23T23:01:05.652Z,12.90
2023-02-23T23:03:35.606Z,13.02
2023-02-23T23:06:02.733Z,12.73
2023-02-23T23:08:30.522Z,13.55
2023-02-23T23:11:01.259Z,12.73
2023-02-23T23:13:27.466Z,12.45
2023-02-23T23:15:57.668Z,12.65
2023-02-23T23:18:33.682Z,12.35
2023-02-23T23:21:03.042Z,13.38
2023-02-23T23:23:29.249Z,13.48
2023-02-23T23:25:55.489Z,12.57
2023-02-23T23:28:24.167Z,12.40
2023-02-23T23:30:52.048Z,12.07
2023-02-23T23:33:18.964Z,14.32
2023-02-23T23:35:45.498Z,13.68
2023-02-23T23:38:14.273Z,13.18
2023-02-23T23:40:46.709Z,14.00
2023-02-23T23:43:12.920Z,13.57
2023-02-23T23:45:39.917Z,14.95
2023-02-23T23:48:09.328Z,13.27
2023-02-23T23:50:35.536Z,13.38
2023-02-23T23:53:04.438Z,14.77
2023-02-23T23:55:31.549Z,15.02
2023-02-23T23:58:00.023Z,16.10
